Terminal Aerodrome Forecast
Issued by NWS Omaha/Valley, NE

Home | Current Version | Previous Version | Text Only | Print | Product List | Glossary On
Versions: 1 2 3 4 5 6 7 8 9 10 11 12 13 14 15 16 17 18 19 20 21 22 23 24 25 26 27 28 29 30 31 32 33 34 35 36
000
FTUS43 KOAX 252339
TAFLNK
TAF
KLNK 252339Z 2600/2624 06010KT P6SM SCT060 BKN250
     FM260200 08011KT P6SM VCTS BKN100CB OVC250
     FM260400 11011KT P6SM BKN250
     FM261300 17011KT P6SM BKN120
     FM261800 18012KT P6SM SCT050=

USA.gov is the U.S. government's official web portal to all federal, state and local government web resources and services.